首页
METAR-TAF:

METAR-TAF

机场 :

St. Augustine Airport

聖奧古斯丁, 佛罗里达州, 美国

纬度: 29-57-33N, 经度: 081-20-23W, 海拔: 3米

当前天气观测

该预报发布于55分钟前的14:56 UTC
风速8节,风向西南
温度 31°C
湿度 66%
气压 1015 hPa
能見度: 16.1公里
少量云层高于2600英尺

METAR: KSGJ 241456Z 23008KT 10SM FEW026 31/24 A2998 RMK AO2 SLP151 6//// T03110244 53001 PNO $

时间: 11:51 (15:51 UTC)

预报

该预报发布于4小时和31分钟前的11:20 UTC
预报有效从24日的 12点(UTC)到 25日的 12点(UTC)
风速9节,风向西转西南
能見度: 10公里
散云层高于2500英尺
多云层高于7000英尺
多云层高于12000英尺
从 24日的 1900点(UTC)
风速11节,风向东南,有时为16节阵风
能見度: 10公里
散云层高于4500英尺, 积雨云.
多云层高于12000英尺
多云层高于25000英尺
附近有雷暴
从 25日的 0500点(UTC)
风速6节,风向南转西南
能見度: 10公里
散云层高于4000英尺
多云层高于9000英尺
多云层高于15000英尺
附近有阵雨
从 25日的 0800点(UTC)
风速4节,风向西转西南
能見度: 10公里
散云层高于5000英尺
多云层高于15000英尺

TAF: KSGJ 241120Z 2412/2512 24009KT P6SM SCT025 BKN070 BKN120 FM241900 14011G16KT P6SM VCTS SCT045CB BKN120 BKN250 FM250500 21006KT P6SM VCSH SCT040 BKN090 BKN150 FM250800 24004KT P6SM SCT050 BKN150

超过4000个机场的气象观测和天气预报(METAR&TAF报告)。

可查询的气象台以黄色和红色小点在地图上表示。

将鼠标移到小点上方,可查看气象台名称。

然后点击查看天气观测和预报。

如需切换地图:点击带黑十字的绿色按钮放大地图;点击带横线的绿色按钮缩小地图;或者点击绿色箭头查看邻近地区的地图。


METAR-TAF: